Hanseatic Scout — V2BM2 — position and weather

sailwx.info

Track history (hours):
 
Tides and Currents Weather Stations Pressure Air Temp Water Temp Dewpoint Dewpoint Depression Visibility Wind Speed Wind Dir Waves Ship Positions

Hanseatic Scout

Last reported at 2015-Apr-19 13:33 UTC. Time now 2015-Apr-19 14:09 UTC.
Position N 54°55' E 018°18'.

Length 89 m; draft 3.3 m.

Type: Ship (hazmat cat C). MMSI: 304867000.

Date/timePositionNaut miles runAvg speedWind from/ knotsBaromVisibWave heightAir tempDewpointWater temp
2015-Apr-19 13:33N 54°55' E 018°18'1111.1
2015-Apr-19 12:33N 54°54' E 017°59'1111.2
2015-Apr-19 11:32N 54°54' E 017°39'11211.1
2015-Apr-19 01:26N 54°36' E 014°28'1011.1
2015-Apr-19 00:33N 54°38' E 014°11'1111.3
2015-Apr-18 23:33N 54°41' E 013°52'1211.6
2015-Apr-18 22:33N 54°44' E 013°33'1111.0
2015-Apr-18 21:33N 54°44' E 013°14'1111.0
2015-Apr-18 20:33N 54°43' E 012°55'1110.8
2015-Apr-18 19:33N 54°39' E 012°38'1111.4
2015-Apr-18 18:33N 54°33' E 012°21'1111.1
2015-Apr-18 17:33N 54°24' E 012°09'1110.8
2015-Apr-18 16:33N 54°25' E 011°50'1211.5
2015-Apr-18 15:33N 54°29' E 011°32'1211.5
2015-Apr-18 14:33N 54°34' E 011°14'1111.4
2015-Apr-18 13:33N 54°35' E 010°55'1311.9
2015-Apr-18 12:29N 54°33' E 010°33'1011.2
2015-Apr-18 11:33N 54°29' E 010°17'8 8.2
2015-Apr-18 10:33N 54°22' E 010°08'1 0.8
2015-Apr-18 09:33N 54°22' E 010°07'6 6.2
2015-Apr-18 08:33N 54°20' E 009°57'7 7.4
2015-Apr-18 07:33N 54°20' E 009°44'6 4.6
2015-Apr-18 06:14N 54°15' E 009°37'4 5.6
2015-Apr-18 05:33N 54°12' E 009°34'8 7.9
2015-Apr-18 04:33N 54°09' E 009°22'6 6.5
2015-Apr-18 03:33N 54°03' E 009°18'7 6.9
2015-Apr-18 02:33N 53°57' E 009°14'4 4.1
2015-Apr-18 01:33N 53°54' E 009°09'2 2.2
2015-Apr-18 00:33N 53°53' E 009°05'5 5.1
2015-Apr-17 23:33N 53°51' E 008°57'1111.4
2015-Apr-17 22:34N 53°55' E 008°40'1212.2
2015-Apr-17 21:33N 53°59' E 008°20'1110.6
2015-Apr-17 20:33N 53°57' E 008°02'6 6.2
2015-Apr-17 19:33N 53°52' E 007°58'8 8.0
2015-Apr-17 18:33N 53°47' E 008°09'1010.0
2015-Apr-17 17:33N 53°41' E 008°22'1111.4
2015-Apr-17 16:33N 53°32' E 008°34'1211.5
2015-Apr-17 15:33N 53°20' E 008°30'0 0.1
2015-Apr-17 14:31N 53°20' E 008°30'0 0.0
2015-Apr-17 13:31N 53°20' E 008°30'0 0.0
2015-Apr-17 12:28N 53°20' E 008°30'0 0.0
2015-Apr-17 11:28N 53°20' E 008°30'0 0.0
2015-Apr-17 10:25N 53°20' E 008°30'0 0.0
2015-Apr-17 09:31N 53°20' E 008°30'0 0.0
2015-Apr-17 08:10N 53°20' E 008°30'0 0.0
2015-Apr-17 06:25N 53°20' E 008°30'0 0.0
2015-Apr-17 05:31N 53°20' E 008°30'0 0.0
2015-Apr-17 04:31N 53°20' E 008°30'0 0.0
2015-Apr-17 03:31N 53°20' E 008°30'0 0.0
2015-Apr-17 02:31N 53°20' E 008°30'0 0.0
2015-Apr-17 01:28N 53°20' E 008°30'0 0.0
2015-Apr-17 00:31N 53°20' E 008°30'0 0.0
2015-Apr-16 23:25N 53°20' E 008°30'0 0.0
2015-Apr-16 22:31N 53°20' E 008°30'0 0.0
2015-Apr-16 21:31N 53°20' E 008°30'0 0.0
2015-Apr-16 20:16N 53°20' E 008°30'0 0.0
2015-Apr-16 19:31N 53°20' E 008°30'0 0.0
2015-Apr-16 18:31N 53°20' E 008°30'0 0.0
2015-Apr-16 17:28N 53°20' E 008°30'0 0.0
2015-Apr-16 16:19N 53°20' E 008°30'0 0.0
2015-Apr-16 15:25N 53°20' E 008°30'0 0.0
2015-Apr-16 14:31N 53°20' E 008°30'0 0.0
2015-Apr-16 13:31N 53°20' E 008°30'0 0.0
2015-Apr-16 12:31N 53°20' E 008°30'0 0.0
2015-Apr-16 11:31N 53°20' E 008°30'0 0.0
2015-Apr-16 10:33N 53°20' E 008°30'0 0.0
2015-Apr-16 09:34N 53°20' E 008°30'0 0.0
2015-Apr-16 08:33N 53°20' E 008°30'0 0.3
2015-Apr-16 07:33N 53°20' E 008°30'1010.3
2015-Apr-16 06:34N 53°31' E 008°32'9 9.2
2015-Apr-16 05:34N 53°39' E 008°25'1111.3
2015-Apr-16 04:33N 53°46' E 008°10'1010.4
2015-Apr-16 03:33N 53°52' E 007°55'9 8.8
2015-Apr-16 02:33N 53°53' E 007°40'9 8.9
2015-Apr-16 01:33N 53°53' E 007°25'9 8.7
2015-Apr-16 00:34N 53°51' E 007°11'32 7.9
2015-Apr-15 20:32N 53°43' E 006°18'7 7.3
2015-Apr-15 19:32N 53°41' E 006°07'8 7.9
2015-Apr-15 18:33N 53°39' E 005°54'8 8.3
2015-Apr-15 17:33N 53°36' E 005°41'9 8.6
2015-Apr-15 16:33N 53°33' E 005°27'1110.9
2015-Apr-15 15:33N 53°30' E 005°10'1212.2
2015-Apr-15 14:33N 53°26' E 004°51'1311.7
2015-Apr-15 13:25N 53°15' E 004°37'1112.4
2015-Apr-15 12:33N 53°06' E 004°28'1212.0
2015-Apr-15 11:33N 52°55' E 004°19'1111.5
2015-Apr-15 10:33N 52°46' E 004°08'1111.1
2015-Apr-15 09:33N 52°38' E 003°56'1010.4
2015-Apr-15 08:33N 52°30' E 003°44'10 9.9
2015-Apr-15 07:31N 52°23' E 003°32'10 9.5
2015-Apr-15 06:26N 52°15' E 003°20'9 9.2
2015-Apr-15 05:24N 52°08' E 003°10'9 9.2
2015-Apr-15 04:26N 52°02' E 003°00'19 9.7
2015-Apr-15 02:25N 51°47' E 002°40'910.4
2015-Apr-15 01:33N 51°40' E 002°30'1110.8
2015-Apr-15 00:33N 51°32' E 002°19'1111.1
2015-Apr-14 23:33N 51°22' E 002°10'1111.0
2015-Apr-14 22:33N 51°13' E 002°02'1211.8
2015-Apr-14 21:33N 51°07' E 001°46'1212.5
2015-Apr-14 20:33N 50°57' E 001°32'1211.7
2015-Apr-14 19:33N 50°47' E 001°24'1110.9
2015-Apr-14 18:33N 50°38' E 001°14'3511.0
2015-Apr-14 15:20N 50°23' E 000°23'911.2
2015-Apr-14 14:33N 50°21' E 000°10'1110.6
2015-Apr-14 13:31N 50°18' W 000°07'47 9.1
2015-Apr-14 08:22N 50°06' W 001°17'9 9.2
2015-Apr-14 07:26N 50°03' W 001°30'1310.2
2015-Apr-14 06:11N 50°00' W 001°49'711.1
2015-Apr-14 05:31N 49°58' W 001°60'1211.7
2015-Apr-14 04:29N 49°55' W 002°18'17210.1
2015-Apr-13 11:32N 48°20' W 005°58'1110.4
2015-Apr-13 10:30N 48°11' W 006°05'1210.5
2015-Apr-13 09:21N 47°60' W 006°13'1110.6
2015-Apr-13 08:17N 47°50' W 006°21'2010.5
2015-Apr-13 06:21N 47°32' W 006°35'  
Track history (hours):
 
Tides and Currents Weather Stations Pressure Air Temp Water Temp Dewpoint Dewpoint Depression Visibility Wind Speed Wind Dir Waves Ship Positions

Hanseatic Scout

Last reported at 2015-Apr-19 13:33 UTC. Time now 2015-Apr-19 14:09 UTC.
Position N 54°55' E 018°18'.

Length 89 m; draft 3.3 m.

Type: Ship (hazmat cat C). MMSI: 304867000.

Date/timePositionNaut miles runAvg speedWind from/ knotsBaromVisibWave heightAir tempDewpointWater temp
2015-Apr-19 13:33N 54°55' E 018°18'1111.1
2015-Apr-19 12:33N 54°54' E 017°59'1111.2
2015-Apr-19 11:32N 54°54' E 017°39'11211.1
2015-Apr-19 01:26N 54°36' E 014°28'1011.1
2015-Apr-19 00:33N 54°38' E 014°11'1111.3
2015-Apr-18 23:33N 54°41' E 013°52'1211.6
2015-Apr-18 22:33N 54°44' E 013°33'1111.0
2015-Apr-18 21:33N 54°44' E 013°14'1111.0
2015-Apr-18 20:33N 54°43' E 012°55'1110.8
2015-Apr-18 19:33N 54°39' E 012°38'1111.4
2015-Apr-18 18:33N 54°33' E 012°21'1111.1
2015-Apr-18 17:33N 54°24' E 012°09'1110.8
2015-Apr-18 16:33N 54°25' E 011°50'1211.5
2015-Apr-18 15:33N 54°29' E 011°32'1211.5
2015-Apr-18 14:33N 54°34' E 011°14'1111.4
2015-Apr-18 13:33N 54°35' E 010°55'1311.9
2015-Apr-18 12:29N 54°33' E 010°33'1011.2
2015-Apr-18 11:33N 54°29' E 010°17'8 8.2
2015-Apr-18 10:33N 54°22' E 010°08'1 0.8
2015-Apr-18 09:33N 54°22' E 010°07'6 6.2
2015-Apr-18 08:33N 54°20' E 009°57'7 7.4
2015-Apr-18 07:33N 54°20' E 009°44'6 4.6
2015-Apr-18 06:14N 54°15' E 009°37'4 5.6
2015-Apr-18 05:33N 54°12' E 009°34'8 7.9
2015-Apr-18 04:33N 54°09' E 009°22'6 6.5
2015-Apr-18 03:33N 54°03' E 009°18'7 6.9
2015-Apr-18 02:33N 53°57' E 009°14'4 4.1
2015-Apr-18 01:33N 53°54' E 009°09'2 2.2
2015-Apr-18 00:33N 53°53' E 009°05'5 5.1
2015-Apr-17 23:33N 53°51' E 008°57'1111.4
2015-Apr-17 22:34N 53°55' E 008°40'1212.2
2015-Apr-17 21:33N 53°59' E 008°20'1110.6
2015-Apr-17 20:33N 53°57' E 008°02'6 6.2
2015-Apr-17 19:33N 53°52' E 007°58'8 8.0
2015-Apr-17 18:33N 53°47' E 008°09'1010.0
2015-Apr-17 17:33N 53°41' E 008°22'1111.4
2015-Apr-17 16:33N 53°32' E 008°34'1211.5
2015-Apr-17 15:33N 53°20' E 008°30'0 0.1
2015-Apr-17 14:31N 53°20' E 008°30'0 0.0
2015-Apr-17 13:31N 53°20' E 008°30'0 0.0
2015-Apr-17 12:28N 53°20' E 008°30'0 0.0
2015-Apr-17 11:28N 53°20' E 008°30'0 0.0
2015-Apr-17 10:25N 53°20' E 008°30'0 0.0
2015-Apr-17 09:31N 53°20' E 008°30'0 0.0
2015-Apr-17 08:10N 53°20' E 008°30'0 0.0
2015-Apr-17 06:25N 53°20' E 008°30'0 0.0
2015-Apr-17 05:31N 53°20' E 008°30'0 0.0
2015-Apr-17 04:31N 53°20' E 008°30'0 0.0
2015-Apr-17 03:31N 53°20' E 008°30'0 0.0
2015-Apr-17 02:31N 53°20' E 008°30'0 0.0
2015-Apr-17 01:28N 53°20' E 008°30'0 0.0
2015-Apr-17 00:31N 53°20' E 008°30'0 0.0
2015-Apr-16 23:25N 53°20' E 008°30'0 0.0
2015-Apr-16 22:31N 53°20' E 008°30'0 0.0
2015-Apr-16 21:31N 53°20' E 008°30'0 0.0
2015-Apr-16 20:16N 53°20' E 008°30'0 0.0
2015-Apr-16 19:31N 53°20' E 008°30'0 0.0
2015-Apr-16 18:31N 53°20' E 008°30'0 0.0
2015-Apr-16 17:28N 53°20' E 008°30'0 0.0
2015-Apr-16 16:19N 53°20' E 008°30'0 0.0
2015-Apr-16 15:25N 53°20' E 008°30'0 0.0
2015-Apr-16 14:31N 53°20' E 008°30'0 0.0
2015-Apr-16 13:31N 53°20' E 008°30'0 0.0
2015-Apr-16 12:31N 53°20' E 008°30'0 0.0
2015-Apr-16 11:31N 53°20' E 008°30'0 0.0
2015-Apr-16 10:33N 53°20' E 008°30'0 0.0
2015-Apr-16 09:34N 53°20' E 008°30'0 0.0
2015-Apr-16 08:33N 53°20' E 008°30'0 0.3
2015-Apr-16 07:33N 53°20' E 008°30'1010.3
2015-Apr-16 06:34N 53°31' E 008°32'9 9.2
2015-Apr-16 05:34N 53°39' E 008°25'1111.3
2015-Apr-16 04:33N 53°46' E 008°10'1010.4
2015-Apr-16 03:33N 53°52' E 007°55'9 8.8
2015-Apr-16 02:33N 53°53' E 007°40'9 8.9
2015-Apr-16 01:33N 53°53' E 007°25'9 8.7
2015-Apr-16 00:34N 53°51' E 007°11'32 7.9
2015-Apr-15 20:32N 53°43' E 006°18'7 7.3
2015-Apr-15 19:32N 53°41' E 006°07'8 7.9
2015-Apr-15 18:33N 53°39' E 005°54'8 8.3
2015-Apr-15 17:33N 53°36' E 005°41'9 8.6
2015-Apr-15 16:33N 53°33' E 005°27'1110.9
2015-Apr-15 15:33N 53°30' E 005°10'1212.2
2015-Apr-15 14:33N 53°26' E 004°51'1311.7
2015-Apr-15 13:25N 53°15' E 004°37'1112.4
2015-Apr-15 12:33N 53°06' E 004°28'1212.0
2015-Apr-15 11:33N 52°55' E 004°19'1111.5
2015-Apr-15 10:33N 52°46' E 004°08'1111.1
2015-Apr-15 09:33N 52°38' E 003°56'1010.4
2015-Apr-15 08:33N 52°30' E 003°44'10 9.9
2015-Apr-15 07:31N 52°23' E 003°32'10 9.5
2015-Apr-15 06:26N 52°15' E 003°20'9 9.2
2015-Apr-15 05:24N 52°08' E 003°10'9 9.2
2015-Apr-15 04:26N 52°02' E 003°00'19 9.7
2015-Apr-15 02:25N 51°47' E 002°40'910.4
2015-Apr-15 01:33N 51°40' E 002°30'1110.8
2015-Apr-15 00:33N 51°32' E 002°19'1111.1
2015-Apr-14 23:33N 51°22' E 002°10'1111.0
2015-Apr-14 22:33N 51°13' E 002°02'1211.8
2015-Apr-14 21:33N 51°07' E 001°46'1212.5
2015-Apr-14 20:33N 50°57' E 001°32'1211.7
2015-Apr-14 19:33N 50°47' E 001°24'1110.9
2015-Apr-14 18:33N 50°38' E 001°14'3511.0
2015-Apr-14 15:20N 50°23' E 000°23'911.2
2015-Apr-14 14:33N 50°21' E 000°10'1110.6
2015-Apr-14 13:31N 50°18' W 000°07'47 9.1
2015-Apr-14 08:22N 50°06' W 001°17'9 9.2
2015-Apr-14 07:26N 50°03' W 001°30'1310.2
2015-Apr-14 06:11N 50°00' W 001°49'711.1
2015-Apr-14 05:31N 49°58' W 001°60'1211.7
2015-Apr-14 04:29N 49°55' W 002°18'17210.1
2015-Apr-13 11:32N 48°20' W 005°58'1110.4
2015-Apr-13 10:30N 48°11' W 006°05'1210.5
2015-Apr-13 09:21N 47°60' W 006°13'1110.6
2015-Apr-13 08:17N 47°50' W 006°21'2010.5
2015-Apr-13 06:21N 47°32' W 006°35'  

Dump ship's entire track history